sensor_id;sensor_type;location;lat;lon;timestamp;temperature;humidity
1155;DHT22;566;48.414;9.118;2022-12-07T00:01:19;1.60;75.00
1155;DHT22;566;48.414;9.118;2022-12-07T00:03:47;1.60;75.70
1155;DHT22;566;48.414;9.118;2022-12-07T00:06:14;1.60;75.00
1155;DHT22;566;48.414;9.118;2022-12-07T00:08:39;1.60;75.40
1155;DHT22;566;48.414;9.118;2022-12-07T00:11:14;1.60;75.60
1155;DHT22;566;48.414;9.118;2022-12-07T00:13:40;1.60;76.20
1155;DHT22;566;48.414;9.118;2022-12-07T00:16:14;1.60;76.50
1155;DHT22;566;48.414;9.118;2022-12-07T00:18:41;1.50;76.90
1155;DHT22;566;48.414;9.118;2022-12-07T00:21:15;1.60;76.10
1155;DHT22;566;48.414;9.118;2022-12-07T00:23:43;1.50;76.50
1155;DHT22;566;48.414;9.118;2022-12-07T00:26:12;1.50;77.10
1155;DHT22;566;48.414;9.118;2022-12-07T00:28:39;1.50;76.30
1155;DHT22;566;48.414;9.118;2022-12-07T00:31:06;1.50;77.50
1155;DHT22;566;48.414;9.118;2022-12-07T00:33:33;1.50;77.40
1155;DHT22;566;48.414;9.118;2022-12-07T00:36:00;1.50;77.00
1155;DHT22;566;48.414;9.118;2022-12-07T00:38:29;1.50;77.90
1155;DHT22;566;48.414;9.118;2022-12-07T00:41:10;1.50;78.50
1155;DHT22;566;48.414;9.118;2022-12-07T00:43:35;1.50;77.90
1155;DHT22;566;48.414;9.118;2022-12-07T00:46:01;1.50;79.50
1155;DHT22;566;48.414;9.118;2022-12-07T00:48:27;1.50;80.20
1155;DHT22;566;48.414;9.118;2022-12-07T00:50:53;1.50;79.50
1155;DHT22;566;48.414;9.118;2022-12-07T00:53:18;1.50;79.80
1155;DHT22;566;48.414;9.118;2022-12-07T00:55:44;1.50;79.80
1155;DHT22;566;48.414;9.118;2022-12-07T00:58:10;1.50;79.70
1155;DHT22;566;48.414;9.118;2022-12-07T01:00:38;1.60;79.70
1155;DHT22;566;48.414;9.118;2022-12-07T01:03:06;1.60;80.50
1155;DHT22;566;48.414;9.118;2022-12-07T01:05:31;1.60;80.60
1155;DHT22;566;48.414;9.118;2022-12-07T01:07:57;1.60;81.50
1155;DHT22;566;48.414;9.118;2022-12-07T01:10:23;1.60;82.00
1155;DHT22;566;48.414;9.118;2022-12-07T01:12:48;1.50;81.50
1155;DHT22;566;48.414;9.118;2022-12-07T01:15:14;1.60;80.90
1155;DHT22;566;48.414;9.118;2022-12-07T01:17:40;1.60;81.70
1155;DHT22;566;48.414;9.118;2022-12-07T01:20:06;1.60;82.40
1155;DHT22;566;48.414;9.118;2022-12-07T01:22:39;1.50;81.40
1155;DHT22;566;48.414;9.118;2022-12-07T01:25:06;1.60;81.20
1155;DHT22;566;48.414;9.118;2022-12-07T01:27:33;1.60;82.00
1155;DHT22;566;48.414;9.118;2022-12-07T01:29:59;1.60;81.90
1155;DHT22;566;48.414;9.118;2022-12-07T01:32:25;1.60;81.60
1155;DHT22;566;48.414;9.118;2022-12-07T01:34:51;1.60;80.90
1155;DHT22;566;48.414;9.118;2022-12-07T01:37:16;1.60;81.30
1155;DHT22;566;48.414;9.118;2022-12-07T01:39:47;1.50;81.60
1155;DHT22;566;48.414;9.118;2022-12-07T01:42:16;1.60;81.10
1155;DHT22;566;48.414;9.118;2022-12-07T01:47:52;1.60;81.60
1155;DHT22;566;48.414;9.118;2022-12-07T01:50:26;1.60;82.20
1155;DHT22;566;48.414;9.118;2022-12-07T01:52:56;1.50;82.50
1155;DHT22;566;48.414;9.118;2022-12-07T01:55:23;1.50;82.40
1155;DHT22;566;48.414;9.118;2022-12-07T01:57:52;1.50;81.50
1155;DHT22;566;48.414;9.118;2022-12-07T02:00:19;1.50;81.00
1155;DHT22;566;48.414;9.118;2022-12-07T02:03:14;1.50;80.50
1155;DHT22;566;48.414;9.118;2022-12-07T02:05:43;1.50;79.90
1155;DHT22;566;48.414;9.118;2022-12-07T02:08:15;1.50;80.50
1155;DHT22;566;48.414;9.118;2022-12-07T02:10:42;1.50;80.60
1155;DHT22;566;48.414;9.118;2022-12-07T02:13:17;1.50;80.60
1155;DHT22;566;48.414;9.118;2022-12-07T02:18:31;1.50;80.50
1155;DHT22;566;48.414;9.118;2022-12-07T02:29:36;1.50;79.90
1155;DHT22;566;48.414;9.118;2022-12-07T02:32:21;1.50;80.30
1155;DHT22;566;48.414;9.118;2022-12-07T02:34:49;1.50;80.20
1155;DHT22;566;48.414;9.118;2022-12-07T02:37:28;1.50;80.30
1155;DHT22;566;48.414;9.118;2022-12-07T02:40:01;1.50;79.90
1155;DHT22;566;48.414;9.118;2022-12-07T02:42:43;1.50;80.60
1155;DHT22;566;48.414;9.118;2022-12-07T02:45:13;1.50;79.60
1155;DHT22;566;48.414;9.118;2022-12-07T02:47:40;1.50;80.40
1155;DHT22;566;48.414;9.118;2022-12-07T02:50:09;1.60;79.30
1155;DHT22;566;48.414;9.118;2022-12-07T02:52:35;1.60;80.60
1155;DHT22;566;48.414;9.118;2022-12-07T02:55:01;1.50;81.20
1155;DHT22;566;48.414;9.118;2022-12-07T02:57:51;1.50;80.60
1155;DHT22;566;48.414;9.118;2022-12-07T03:00:20;1.50;80.50
1155;DHT22;566;48.414;9.118;2022-12-07T03:03:03;1.50;79.90
1155;DHT22;566;48.414;9.118;2022-12-07T03:11:20;1.50;78.70
1155;DHT22;566;48.414;9.118;2022-12-07T03:13:59;1.50;78.40
1155;DHT22;566;48.414;9.118;2022-12-07T03:16:42;1.50;77.90
1155;DHT22;566;48.414;9.118;2022-12-07T03:19:15;1.50;78.30
1155;DHT22;566;48.414;9.118;2022-12-07T03:21:44;1.60;77.60
1155;DHT22;566;48.414;9.118;2022-12-07T03:24:21;1.60;78.20
1155;DHT22;566;48.414;9.118;2022-12-07T03:26:53;1.60;77.40
1155;DHT22;566;48.414;9.118;2022-12-07T03:29:27;1.60;78.80
1155;DHT22;566;48.414;9.118;2022-12-07T03:32:05;1.60;78.50
1155;DHT22;566;48.414;9.118;2022-12-07T03:35:12;1.60;80.30
1155;DHT22;566;48.414;9.118;2022-12-07T03:37:35;1.60;80.30
1155;DHT22;566;48.414;9.118;2022-12-07T03:40:21;1.50;80.80
1155;DHT22;566;48.414;9.118;2022-12-07T03:42:48;1.50;81.90
1155;DHT22;566;48.414;9.118;2022-12-07T03:45:15;1.50;83.90
1155;DHT22;566;48.414;9.118;2022-12-07T03:47:57;1.40;84.40
1155;DHT22;566;48.414;9.118;2022-12-07T03:50:38;1.30;84.90
1155;DHT22;566;48.414;9.118;2022-12-07T03:53:15;1.30;84.90
1155;DHT22;566;48.414;9.118;2022-12-07T03:55:44;1.20;84.80
1155;DHT22;566;48.414;9.118;2022-12-07T03:58:15;1.20;83.20
1155;DHT22;566;48.414;9.118;2022-12-07T04:00:42;1.20;84.00
1155;DHT22;566;48.414;9.118;2022-12-07T04:03:09;1.10;83.40
1155;DHT22;566;48.414;9.118;2022-12-07T04:05:35;1.10;82.90
1155;DHT22;566;48.414;9.118;2022-12-07T04:08:01;1.00;82.30
1155;DHT22;566;48.414;9.118;2022-12-07T04:10:29;1.00;81.80
1155;DHT22;566;48.414;9.118;2022-12-07T04:12:55;1.00;82.40
1155;DHT22;566;48.414;9.118;2022-12-07T04:15:24;0.90;82.70
1155;DHT22;566;48.414;9.118;2022-12-07T04:17:49;0.90;83.30
1155;DHT22;566;48.414;9.118;2022-12-07T04:20:16;0.90;82.50
1155;DHT22;566;48.414;9.118;2022-12-07T04:22:41;0.90;83.00
1155;DHT22;566;48.414;9.118;2022-12-07T04:25:07;0.80;84.00
1155;DHT22;566;48.414;9.118;2022-12-07T04:27:33;0.80;82.70
1155;DHT22;566;48.414;9.118;2022-12-07T04:29:59;0.80;83.20
1155;DHT22;566;48.414;9.118;2022-12-07T04:32:24;0.80;84.10
1155;DHT22;566;48.414;9.118;2022-12-07T04:34:50;0.70;83.80
1155;DHT22;566;48.414;9.118;2022-12-07T04:37:15;0.70;83.80
1155;DHT22;566;48.414;9.118;2022-12-07T04:39:42;0.70;83.10
1155;DHT22;566;48.414;9.118;2022-12-07T04:42:10;0.60;82.90
1155;DHT22;566;48.414;9.118;2022-12-07T04:44:36;0.60;82.00
1155;DHT22;566;48.414;9.118;2022-12-07T04:47:02;0.70;80.20
1155;DHT22;566;48.414;9.118;2022-12-07T04:49:27;0.80;80.60
1155;DHT22;566;48.414;9.118;2022-12-07T04:51:53;0.80;83.10
1155;DHT22;566;48.414;9.118;2022-12-07T04:54:25;0.70;83.00
1155;DHT22;566;48.414;9.118;2022-12-07T04:56:50;0.70;84.10
1155;DHT22;566;48.414;9.118;2022-12-07T04:59:19;0.70;84.50
1155;DHT22;566;48.414;9.118;2022-12-07T05:01:44;0.60;83.50
1155;DHT22;566;48.414;9.118;2022-12-07T05:04:10;0.60;82.90
1155;DHT22;566;48.414;9.118;2022-12-07T05:06:36;0.50;82.00
1155;DHT22;566;48.414;9.118;2022-12-07T05:09:02;0.50;80.90
1155;DHT22;566;48.414;9.118;2022-12-07T05:11:28;0.50;80.00
1155;DHT22;566;48.414;9.118;2022-12-07T05:16:36;0.50;81.40
1155;DHT22;566;48.414;9.118;2022-12-07T05:19:02;0.40;81.40
1155;DHT22;566;48.414;9.118;2022-12-07T05:21:28;0.30;80.90
1155;DHT22;566;48.414;9.118;2022-12-07T05:23:53;0.30;81.60
1155;DHT22;566;48.414;9.118;2022-12-07T05:26:19;0.20;81.50
1155;DHT22;566;48.414;9.118;2022-12-07T05:28:45;0.20;79.50
1155;DHT22;566;48.414;9.118;2022-12-07T05:31:10;0.20;80.50
1155;DHT22;566;48.414;9.118;2022-12-07T05:33:36;0.10;82.70
1155;DHT22;566;48.414;9.118;2022-12-07T05:36:02;-0.10;83.20
1155;DHT22;566;48.414;9.118;2022-12-07T05:38:31;-0.20;82.70
1155;DHT22;566;48.414;9.118;2022-12-07T05:41:03;-0.20;81.60
1155;DHT22;566;48.414;9.118;2022-12-07T05:43:30;-0.20;80.80
1155;DHT22;566;48.414;9.118;2022-12-07T05:45:55;-0.30;81.70
1155;DHT22;566;48.414;9.118;2022-12-07T05:48:21;-0.40;81.10
1155;DHT22;566;48.414;9.118;2022-12-07T05:50:50;-0.50;81.00
1155;DHT22;566;48.414;9.118;2022-12-07T05:53:17;-0.60;80.80
1155;DHT22;566;48.414;9.118;2022-12-07T05:55:43;-0.60;79.00
1155;DHT22;566;48.414;9.118;2022-12-07T05:58:11;-0.60;78.20
1155;DHT22;566;48.414;9.118;2022-12-07T06:00:56;-0.60;78.00
1155;DHT22;566;48.414;9.118;2022-12-07T06:03:21;-0.70;79.40
1155;DHT22;566;48.414;9.118;2022-12-07T06:05:47;-0.80;79.70
1155;DHT22;566;48.414;9.118;2022-12-07T06:08:13;-0.90;78.80
1155;DHT22;566;48.414;9.118;2022-12-07T06:10:40;-0.90;77.60
1155;DHT22;566;48.414;9.118;2022-12-07T06:13:06;-1.00;76.70
1155;DHT22;566;48.414;9.118;2022-12-07T06:15:40;-1.00;76.60
1155;DHT22;566;48.414;9.118;2022-12-07T06:18:06;-1.00;75.80
1155;DHT22;566;48.414;9.118;2022-12-07T06:20:31;-1.10;77.30
1155;DHT22;566;48.414;9.118;2022-12-07T06:22:57;-1.20;76.00
1155;DHT22;566;48.414;9.118;2022-12-07T06:25:26;-1.20;75.70
1155;DHT22;566;48.414;9.118;2022-12-07T06:27:51;-1.20;75.70
1155;DHT22;566;48.414;9.118;2022-12-07T06:30:17;-1.20;74.80
1155;DHT22;566;48.414;9.118;2022-12-07T06:32:43;-1.10;74.40
1155;DHT22;566;48.414;9.118;2022-12-07T06:35:11;-1.10;73.80
1155;DHT22;566;48.414;9.118;2022-12-07T06:37:37;-1.10;75.30
1155;DHT22;566;48.414;9.118;2022-12-07T06:40:03;-1.20;74.60
1155;DHT22;566;48.414;9.118;2022-12-07T06:42:29;-1.10;73.40
1155;DHT22;566;48.414;9.118;2022-12-07T06:44:55;-1.10;74.00
1155;DHT22;566;48.414;9.118;2022-12-07T06:47:20;-1.10;75.50
1155;DHT22;566;48.414;9.118;2022-12-07T06:49:46;-1.30;76.10
1155;DHT22;566;48.414;9.118;2022-12-07T06:52:11;-1.30;72.90
1155;DHT22;566;48.414;9.118;2022-12-07T06:54:37;-1.20;74.00
1155;DHT22;566;48.414;9.118;2022-12-07T06:57:02;-1.20;74.00
1155;DHT22;566;48.414;9.118;2022-12-07T06:59:31;-1.20;74.40
1155;DHT22;566;48.414;9.118;2022-12-07T07:01:56;-1.20;75.00
1155;DHT22;566;48.414;9.118;2022-12-07T07:04:22;-1.20;75.10
1155;DHT22;566;48.414;9.118;2022-12-07T07:06:48;-1.20;74.20
1155;DHT22;566;48.414;9.118;2022-12-07T07:09:14;-1.10;75.20
1155;DHT22;566;48.414;9.118;2022-12-07T07:11:42;-1.10;76.80
1155;DHT22;566;48.414;9.118;2022-12-07T07:14:08;-1.10;76.30
1155;DHT22;566;48.414;9.118;2022-12-07T07:16:33;-1.00;76.50
1155;DHT22;566;48.414;9.118;2022-12-07T07:19:02;-1.00;77.20
1155;DHT22;566;48.414;9.118;2022-12-07T07:21:27;-0.90;77.70
1155;DHT22;566;48.414;9.118;2022-12-07T07:23:53;-0.90;77.50
1155;DHT22;566;48.414;9.118;2022-12-07T07:26:18;-0.80;76.30
1155;DHT22;566;48.414;9.118;2022-12-07T07:28:47;-0.60;77.50
1155;DHT22;566;48.414;9.118;2022-12-07T07:31:15;-0.40;79.70
1155;DHT22;566;48.414;9.118;2022-12-07T07:33:41;-0.30;83.40
1155;DHT22;566;48.414;9.118;2022-12-07T07:36:06;-0.20;83.60
1155;DHT22;566;48.414;9.118;2022-12-07T07:38:32;-0.10;87.20
1155;DHT22;566;48.414;9.118;2022-12-07T07:40:58;0.00;92.00
1155;DHT22;566;48.414;9.118;2022-12-07T07:43:23;-0.10;90.80
1155;DHT22;566;48.414;9.118;2022-12-07T07:45:49;-0.10;90.40
1155;DHT22;566;48.414;9.118;2022-12-07T07:48:14;0.00;91.00
1155;DHT22;566;48.414;9.118;2022-12-07T07:50:40;-0.10;89.50
1155;DHT22;566;48.414;9.118;2022-12-07T07:53:05;-0.10;88.60
1155;DHT22;566;48.414;9.118;2022-12-07T07:55:31;0.00;87.40
1155;DHT22;566;48.414;9.118;2022-12-07T07:58:17;0.10;86.80
1155;DHT22;566;48.414;9.118;2022-12-07T08:00:42;0.10;87.40
1155;DHT22;566;48.414;9.118;2022-12-07T08:03:08;0.20;87.60
1155;DHT22;566;48.414;9.118;2022-12-07T08:05:33;0.30;86.80
1155;DHT22;566;48.414;9.118;2022-12-07T08:07:59;0.30;87.30
1155;DHT22;566;48.414;9.118;2022-12-07T08:10:24;0.50;86.40
1155;DHT22;566;48.414;9.118;2022-12-07T08:12:50;0.60;86.00
1155;DHT22;566;48.414;9.118;2022-12-07T08:15:37;0.70;87.00
1155;DHT22;566;48.414;9.118;2022-12-07T08:18:03;0.70;89.50
1155;DHT22;566;48.414;9.118;2022-12-07T08:20:33;0.80;88.90
1155;DHT22;566;48.414;9.118;2022-12-07T08:22:59;1.00;91.40
1155;DHT22;566;48.414;9.118;2022-12-07T08:25:25;1.10;98.00
1155;DHT22;566;48.414;9.118;2022-12-07T08:27:52;1.30;98.00
1155;DHT22;566;48.414;9.118;2022-12-07T08:30:17;1.50;98.00
1155;DHT22;566;48.414;9.118;2022-12-07T08:32:47;1.60;98.00
1155;DHT22;566;48.414;9.118;2022-12-07T08:35:13;1.70;98.00
1155;DHT22;566;48.414;9.118;2022-12-07T08:37:39;1.70;98.00
1155;DHT22;566;48.414;9.118;2022-12-07T08:40:06;1.90;98.00
1155;DHT22;566;48.414;9.118;2022-12-07T08:42:32;2.00;98.00
1155;DHT22;566;48.414;9.118;2022-12-07T08:45:05;2.10;98.00
1155;DHT22;566;48.414;9.118;2022-12-07T08:47:31;2.40;98.00
1155;DHT22;566;48.414;9.118;2022-12-07T08:49:57;2.70;98.00
1155;DHT22;566;48.414;9.118;2022-12-07T08:52:31;2.80;98.00
1155;DHT22;566;48.414;9.118;2022-12-07T08:54:58;3.20;98.00
1155;DHT22;566;48.414;9.118;2022-12-07T08:57:25;3.00;98.00
1155;DHT22;566;48.414;9.118;2022-12-07T08:59:51;2.70;98.00
1155;DHT22;566;48.414;9.118;2022-12-07T09:02:17;2.40;98.00
1155;DHT22;566;48.414;9.118;2022-12-07T09:04:42;2.30;98.00
1155;DHT22;566;48.414;9.118;2022-12-07T09:07:08;2.30;98.00
1155;DHT22;566;48.414;9.118;2022-12-07T09:09:40;2.40;98.00
1155;DHT22;566;48.414;9.118;2022-12-07T09:12:08;2.50;98.00
1155;DHT22;566;48.414;9.118;2022-12-07T09:14:34;2.60;98.00
1155;DHT22;566;48.414;9.118;2022-12-07T09:17:12;2.80;98.00
1155;DHT22;566;48.414;9.118;2022-12-07T09:19:39;2.90;98.00
1155;DHT22;566;48.414;9.118;2022-12-07T09:22:08;2.80;98.00
1155;DHT22;566;48.414;9.118;2022-12-07T09:24:33;2.70;98.00
1155;DHT22;566;48.414;9.118;2022-12-07T09:26:59;2.80;98.00
1155;DHT22;566;48.414;9.118;2022-12-07T09:29:25;2.80;98.00
1155;DHT22;566;48.414;9.118;2022-12-07T09:31:51;2.90;98.00
1155;DHT22;566;48.414;9.118;2022-12-07T09:34:17;2.90;98.00
1155;DHT22;566;48.414;9.118;2022-12-07T09:36:43;3.00;98.00
1155;DHT22;566;48.414;9.118;2022-12-07T09:39:09;3.00;98.00
1155;DHT22;566;48.414;9.118;2022-12-07T09:41:38;3.20;98.00
1155;DHT22;566;48.414;9.118;2022-12-07T09:44:09;3.40;98.00
1155;DHT22;566;48.414;9.118;2022-12-07T09:46:41;3.50;98.00
1155;DHT22;566;48.414;9.118;2022-12-07T09:49:14;3.60;98.00
1155;DHT22;566;48.414;9.118;2022-12-07T09:51:42;3.70;98.00
1155;DHT22;566;48.414;9.118;2022-12-07T09:54:15;3.70;98.00
1155;DHT22;566;48.414;9.118;2022-12-07T09:56:42;3.40;98.00
1155;DHT22;566;48.414;9.118;2022-12-07T09:59:16;3.30;98.00
1155;DHT22;566;48.414;9.118;2022-12-07T10:01:44;3.30;98.00
1155;DHT22;566;48.414;9.118;2022-12-07T10:04:14;3.30;98.00
1155;DHT22;566;48.414;9.118;2022-12-07T10:06:41;3.30;97.60
1155;DHT22;566;48.414;9.118;2022-12-07T10:09:12;3.40;98.00
1155;DHT22;566;48.414;9.118;2022-12-07T10:14:30;3.50;97.10
1155;DHT22;566;48.414;9.118;2022-12-07T10:17:01;3.40;96.60
1155;DHT22;566;48.414;9.118;2022-12-07T10:19:29;3.40;95.40
1155;DHT22;566;48.414;9.118;2022-12-07T10:22:14;3.40;96.70
1155;DHT22;566;48.414;9.118;2022-12-07T10:24:41;3.40;95.10
1155;DHT22;566;48.414;9.118;2022-12-07T10:29:50;3.60;95.10
1155;DHT22;566;48.414;9.118;2022-12-07T10:34:45;3.60;94.90
1155;DHT22;566;48.414;9.118;2022-12-07T10:37:20;3.70;95.30
1155;DHT22;566;48.414;9.118;2022-12-07T10:39:56;3.80;94.90
1155;DHT22;566;48.414;9.118;2022-12-07T10:42:26;3.90;94.60
1155;DHT22;566;48.414;9.118;2022-12-07T10:47:55;3.80;94.70
1155;DHT22;566;48.414;9.118;2022-12-07T11:06:54;3.70;95.70
1155;DHT22;566;48.414;9.118;2022-12-07T11:18:27;3.80;96.00
1155;DHT22;566;48.414;9.118;2022-12-07T11:24:10;3.80;95.50
1155;DHT22;566;48.414;9.118;2022-12-07T11:27:27;3.80;94.80
1155;DHT22;566;48.414;9.118;2022-12-07T11:38:03;4.10;94.00
1155;DHT22;566;48.414;9.118;2022-12-07T11:40:36;4.20;94.80
1155;DHT22;566;48.414;9.118;2022-12-07T11:43:26;4.30;94.40
1155;DHT22;566;48.414;9.118;2022-12-07T11:46:05;4.40;94.00
1155;DHT22;566;48.414;9.118;2022-12-07T11:49:19;4.40;93.70
1155;DHT22;566;48.414;9.118;2022-12-07T11:51:49;4.50;93.20
1155;DHT22;566;48.414;9.118;2022-12-07T11:54:26;4.40;92.90
1155;DHT22;566;48.414;9.118;2022-12-07T11:56:54;4.30;93.60
1155;DHT22;566;48.414;9.118;2022-12-07T11:59:40;4.40;93.70
1155;DHT22;566;48.414;9.118;2022-12-07T12:03:09;4.40;93.40
1155;DHT22;566;48.414;9.118;2022-12-07T12:05:39;4.30;94.10
1155;DHT22;566;48.414;9.118;2022-12-07T12:08:11;4.30;93.90
1155;DHT22;566;48.414;9.118;2022-12-07T12:22:23;4.60;94.10
1155;DHT22;566;48.414;9.118;2022-12-07T12:24:53;4.60;93.80
1155;DHT22;566;48.414;9.118;2022-12-07T12:27:34;4.60;93.60
1155;DHT22;566;48.414;9.118;2022-12-07T12:30:31;4.50;94.50
1155;DHT22;566;48.414;9.118;2022-12-07T12:33:20;4.40;93.90
1155;DHT22;566;48.414;9.118;2022-12-07T12:44:02;4.70;93.40
1155;DHT22;566;48.414;9.118;2022-12-07T12:57:12;4.60;93.50
1155;DHT22;566;48.414;9.118;2022-12-07T12:59:41;4.50;93.40
1155;DHT22;566;48.414;9.118;2022-12-07T13:13:43;4.30;94.90
1155;DHT22;566;48.414;9.118;2022-12-07T13:16:38;4.40;95.20
1155;DHT22;566;48.414;9.118;2022-12-07T13:18:39;4.40;95.00
1155;DHT22;566;48.414;9.118;2022-12-07T13:28:39;4.60;95.00
1155;DHT22;566;48.414;9.118;2022-12-07T13:33:53;4.50;95.70
1155;DHT22;566;48.414;9.118;2022-12-07T13:36:24;4.30;96.10
1155;DHT22;566;48.414;9.118;2022-12-07T13:38:58;4.10;96.70
1155;DHT22;566;48.414;9.118;2022-12-07T13:41:28;4.00;96.70
1155;DHT22;566;48.414;9.118;2022-12-07T13:44:07;4.10;97.50
1155;DHT22;566;48.414;9.118;2022-12-07T13:49:37;4.00;97.20
1155;DHT22;566;48.414;9.118;2022-12-07T13:52:21;4.00;97.20
1155;DHT22;566;48.414;9.118;2022-12-07T13:57:22;3.80;97.90
1155;DHT22;566;48.414;9.118;2022-12-07T13:59:49;3.70;98.00
1155;DHT22;566;48.414;9.118;2022-12-07T14:02:27;3.70;98.00
1155;DHT22;566;48.414;9.118;2022-12-07T14:08:03;3.80;98.00
1155;DHT22;566;48.414;9.118;2022-12-07T14:10:39;3.70;98.00
1155;DHT22;566;48.414;9.118;2022-12-07T14:13:28;3.70;98.00
1155;DHT22;566;48.414;9.118;2022-12-07T14:15:54;3.60;98.00
1155;DHT22;566;48.414;9.118;2022-12-07T14:18:36;3.60;98.00
1155;DHT22;566;48.414;9.118;2022-12-07T14:21:14;3.60;98.00
1155;DHT22;566;48.414;9.118;2022-12-07T14:23:41;3.60;98.00
1155;DHT22;566;48.414;9.118;2022-12-07T14:26:18;3.60;98.00
1155;DHT22;566;48.414;9.118;2022-12-07T14:28:46;3.50;98.00
1155;DHT22;566;48.414;9.118;2022-12-07T14:31:14;3.40;98.00
1155;DHT22;566;48.414;9.118;2022-12-07T14:33:41;3.40;98.00
1155;DHT22;566;48.414;9.118;2022-12-07T14:36:11;3.30;98.00
1155;DHT22;566;48.414;9.118;2022-12-07T14:38:37;3.30;98.00
1155;DHT22;566;48.414;9.118;2022-12-07T14:41:04;3.30;98.00
1155;DHT22;566;48.414;9.118;2022-12-07T14:43:49;3.30;98.00
1155;DHT22;566;48.414;9.118;2022-12-07T14:46:15;3.30;98.00
1155;DHT22;566;48.414;9.118;2022-12-07T14:48:41;3.30;98.00
1155;DHT22;566;48.414;9.118;2022-12-07T14:51:11;3.20;98.00
1155;DHT22;566;48.414;9.118;2022-12-07T14:53:42;3.20;98.00
1155;DHT22;566;48.414;9.118;2022-12-07T14:56:09;3.10;98.00
1155;DHT22;566;48.414;9.118;2022-12-07T14:58:35;3.10;98.00
1155;DHT22;566;48.414;9.118;2022-12-07T15:01:01;3.00;98.00
1155;DHT22;566;48.414;9.118;2022-12-07T15:03:27;3.00;98.00
1155;DHT22;566;48.414;9.118;2022-12-07T15:05:52;3.00;98.00
1155;DHT22;566;48.414;9.118;2022-12-07T15:08:18;3.00;98.00
1155;DHT22;566;48.414;9.118;2022-12-07T15:10:44;2.90;98.00
1155;DHT22;566;48.414;9.118;2022-12-07T15:13:09;2.90;98.00
1155;DHT22;566;48.414;9.118;2022-12-07T15:15:54;2.90;98.00
1155;DHT22;566;48.414;9.118;2022-12-07T15:18:21;2.90;98.00
1155;DHT22;566;48.414;9.118;2022-12-07T15:20:48;2.90;98.00
1155;DHT22;566;48.414;9.118;2022-12-07T15:23:14;2.90;98.00
1155;DHT22;566;48.414;9.118;2022-12-07T15:25:44;2.80;98.00
1155;DHT22;566;48.414;9.118;2022-12-07T15:28:10;2.80;98.00
1155;DHT22;566;48.414;9.118;2022-12-07T15:30:41;2.90;98.00
1155;DHT22;566;48.414;9.118;2022-12-07T15:33:08;2.90;98.00
1155;DHT22;566;48.414;9.118;2022-12-07T15:35:38;2.80;98.00
1155;DHT22;566;48.414;9.118;2022-12-07T15:38:04;2.80;98.00
1155;DHT22;566;48.414;9.118;2022-12-07T15:40:33;2.70;98.00
1155;DHT22;566;48.414;9.118;2022-12-07T15:43:00;2.80;98.00
1155;DHT22;566;48.414;9.118;2022-12-07T15:45:26;2.80;98.00
1155;DHT22;566;48.414;9.118;2022-12-07T15:47:51;2.70;98.00
1155;DHT22;566;48.414;9.118;2022-12-07T15:50:17;2.80;98.00
1155;DHT22;566;48.414;9.118;2022-12-07T15:52:45;2.70;98.00
1155;DHT22;566;48.414;9.118;2022-12-07T15:55:11;2.70;98.00
1155;DHT22;566;48.414;9.118;2022-12-07T15:57:37;2.70;98.00
1155;DHT22;566;48.414;9.118;2022-12-07T16:00:12;2.70;98.00
1155;DHT22;566;48.414;9.118;2022-12-07T16:02:41;2.70;98.00
1155;DHT22;566;48.414;9.118;2022-12-07T16:05:07;2.70;98.00
1155;DHT22;566;48.414;9.118;2022-12-07T16:07:35;2.60;98.00
1155;DHT22;566;48.414;9.118;2022-12-07T16:10:05;2.60;98.00
1155;DHT22;566;48.414;9.118;2022-12-07T16:12:30;2.60;98.00
1155;DHT22;566;48.414;9.118;2022-12-07T16:14:56;2.60;98.00
1155;DHT22;566;48.414;9.118;2022-12-07T16:17:24;2.60;98.00
1155;DHT22;566;48.414;9.118;2022-12-07T16:19:50;2.50;98.00
1155;DHT22;566;48.414;9.118;2022-12-07T16:22:16;2.50;98.00
1155;DHT22;566;48.414;9.118;2022-12-07T16:24:41;2.50;98.00
1155;DHT22;566;48.414;9.118;2022-12-07T16:27:12;2.50;98.00
1155;DHT22;566;48.414;9.118;2022-12-07T16:29:38;2.50;98.00
1155;DHT22;566;48.414;9.118;2022-12-07T16:32:04;2.50;98.00
1155;DHT22;566;48.414;9.118;2022-12-07T16:34:30;2.50;98.00
1155;DHT22;566;48.414;9.118;2022-12-07T16:36:55;2.50;98.00
1155;DHT22;566;48.414;9.118;2022-12-07T16:39:21;2.50;98.00
1155;DHT22;566;48.414;9.118;2022-12-07T16:41:46;2.40;98.00
1155;DHT22;566;48.414;9.118;2022-12-07T16:44:12;2.40;98.00
1155;DHT22;566;48.414;9.118;2022-12-07T16:46:42;2.40;98.00
1155;DHT22;566;48.414;9.118;2022-12-07T16:49:12;2.40;98.00
1155;DHT22;566;48.414;9.118;2022-12-07T16:51:43;2.40;98.00
1155;DHT22;566;48.414;9.118;2022-12-07T16:54:19;2.40;98.00
1155;DHT22;566;48.414;9.118;2022-12-07T16:56:47;2.40;98.00
1155;DHT22;566;48.414;9.118;2022-12-07T16:59:14;2.30;98.00
1155;DHT22;566;48.414;9.118;2022-12-07T17:01:40;2.40;98.00
1155;DHT22;566;48.414;9.118;2022-12-07T17:04:05;2.40;98.00
1155;DHT22;566;48.414;9.118;2022-12-07T17:06:35;2.40;98.00
1155;DHT22;566;48.414;9.118;2022-12-07T17:09:02;2.30;98.00
1155;DHT22;566;48.414;9.118;2022-12-07T17:11:30;2.30;98.00
1155;DHT22;566;48.414;9.118;2022-12-07T17:13:58;2.30;98.00
1155;DHT22;566;48.414;9.118;2022-12-07T17:16:42;2.30;98.00
1155;DHT22;566;48.414;9.118;2022-12-07T17:19:10;2.30;98.00
1155;DHT22;566;48.414;9.118;2022-12-07T17:21:39;2.30;98.00
1155;DHT22;566;48.414;9.118;2022-12-07T17:24:07;2.20;98.00
1155;DHT22;566;48.414;9.118;2022-12-07T17:26:34;2.20;98.00
1155;DHT22;566;48.414;9.118;2022-12-07T17:29:03;2.20;98.00
1155;DHT22;566;48.414;9.118;2022-12-07T17:31:28;2.20;98.00
1155;DHT22;566;48.414;9.118;2022-12-07T17:33:54;2.20;98.00
1155;DHT22;566;48.414;9.118;2022-12-07T17:36:22;2.20;98.00
1155;DHT22;566;48.414;9.118;2022-12-07T17:38:49;2.10;98.00
1155;DHT22;566;48.414;9.118;2022-12-07T17:41:19;2.10;97.50
1155;DHT22;566;48.414;9.118;2022-12-07T17:44:21;2.10;97.10
1155;DHT22;566;48.414;9.118;2022-12-07T17:46:48;2.10;97.00
1155;DHT22;566;48.414;9.118;2022-12-07T17:49:15;2.10;97.60
1155;DHT22;566;48.414;9.118;2022-12-07T17:51:41;2.10;98.00
1155;DHT22;566;48.414;9.118;2022-12-07T17:54:27;2.00;98.00
1155;DHT22;566;48.414;9.118;2022-12-07T17:56:53;2.00;98.00
1155;DHT22;566;48.414;9.118;2022-12-07T17:59:18;2.00;98.00
1155;DHT22;566;48.414;9.118;2022-12-07T18:01:44;2.00;98.00
1155;DHT22;566;48.414;9.118;2022-12-07T18:04:10;1.90;98.00
1155;DHT22;566;48.414;9.118;2022-12-07T18:06:36;1.90;98.00
1155;DHT22;566;48.414;9.118;2022-12-07T18:09:02;1.90;98.00
1155;DHT22;566;48.414;9.118;2022-12-07T18:11:28;1.80;98.00
1155;DHT22;566;48.414;9.118;2022-12-07T18:13:53;1.70;98.00
1155;DHT22;566;48.414;9.118;2022-12-07T18:16:22;1.70;98.00
1155;DHT22;566;48.414;9.118;2022-12-07T18:18:48;1.60;98.00
1155;DHT22;566;48.414;9.118;2022-12-07T18:21:19;1.70;98.00
1155;DHT22;566;48.414;9.118;2022-12-07T18:23:51;1.60;98.00
1155;DHT22;566;48.414;9.118;2022-12-07T18:26:18;1.70;98.00
1155;DHT22;566;48.414;9.118;2022-12-07T18:28:44;1.60;98.00
1155;DHT22;566;48.414;9.118;2022-12-07T18:31:11;1.60;98.00
1155;DHT22;566;48.414;9.118;2022-12-07T18:33:38;1.60;98.00
1155;DHT22;566;48.414;9.118;2022-12-07T18:36:04;1.60;98.00
1155;DHT22;566;48.414;9.118;2022-12-07T18:38:30;1.60;98.00
1155;DHT22;566;48.414;9.118;2022-12-07T18:41:00;1.60;98.00
1155;DHT22;566;48.414;9.118;2022-12-07T18:43:28;1.60;98.00
1155;DHT22;566;48.414;9.118;2022-12-07T18:45:54;1.60;98.00
1155;DHT22;566;48.414;9.118;2022-12-07T18:48:21;1.50;98.00
1155;DHT22;566;48.414;9.118;2022-12-07T18:50:57;1.50;98.00
1155;DHT22;566;48.414;9.118;2022-12-07T18:53:26;1.60;98.00
1155;DHT22;566;48.414;9.118;2022-12-07T18:56:11;1.60;98.00
1155;DHT22;566;48.414;9.118;2022-12-07T18:58:38;1.60;98.00